createdAt,value
2023-07-04T00:00:50.504Z,44.87
2023-07-04T00:01:50.515Z,44.82
2023-07-04T00:02:50.516Z,44.74
2023-07-04T00:03:50.555Z,44.72
2023-07-04T00:04:50.586Z,44.69
2023-07-04T00:05:50.634Z,44.65
2023-07-04T00:06:50.697Z,44.59
2023-07-04T00:07:50.768Z,44.59
2023-07-04T00:08:50.833Z,44.60
2023-07-04T00:09:50.900Z,44.57
2023-07-04T00:10:51.143Z,44.57
2023-07-04T00:11:51.013Z,44.57
2023-07-04T00:12:51.075Z,44.56
2023-07-04T00:13:51.207Z,44.56
2023-07-04T00:14:51.165Z,44.56
2023-07-04T00:15:51.204Z,44.52
2023-07-04T00:16:51.315Z,44.51
2023-07-04T00:17:51.314Z,44.54
2023-07-04T00:18:51.276Z,44.56
2023-07-04T00:19:51.284Z,44.53
2023-07-04T00:20:51.410Z,44.53
2023-07-04T00:21:51.302Z,44.55
2023-07-04T00:22:51.353Z,44.55
2023-07-04T00:23:51.299Z,44.54
2023-07-04T00:24:51.335Z,44.52
2023-07-04T00:25:51.402Z,44.51
2023-07-04T00:26:51.422Z,44.52
2023-07-04T00:27:51.477Z,44.53
2023-07-04T00:28:51.461Z,44.51
2023-07-04T00:29:51.509Z,44.51
2023-07-04T00:30:51.737Z,44.52
2023-07-04T00:31:51.536Z,44.52
2023-07-04T00:32:51.615Z,44.53
2023-07-04T00:33:51.565Z,44.54
2023-07-04T00:34:51.571Z,44.51
2023-07-04T00:35:51.594Z,44.48
2023-07-04T00:36:51.593Z,44.48
2023-07-04T00:37:51.589Z,44.51
2023-07-04T00:38:51.575Z,44.48
2023-07-04T00:39:51.569Z,44.49
2023-07-04T00:40:51.825Z,44.46
2023-07-04T00:41:51.565Z,44.47
2023-07-04T00:42:51.575Z,44.48
2023-07-04T00:43:51.569Z,44.48
2023-07-04T00:44:51.572Z,44.44
2023-07-04T00:45:51.602Z,44.46
2023-07-04T00:46:51.620Z,44.44
2023-07-04T00:47:51.583Z,44.48
2023-07-04T00:48:51.586Z,44.49
2023-07-04T00:49:51.591Z,44.47
2023-07-04T00:50:51.798Z,44.47
2023-07-04T00:51:51.581Z,44.47
2023-07-04T00:52:51.585Z,44.46
2023-07-04T00:53:51.601Z,44.45
2023-07-04T00:54:51.615Z,44.46
2023-07-04T00:55:51.635Z,44.46
2023-07-04T00:56:51.617Z,44.46
2023-07-04T00:57:51.647Z,44.44
2023-07-04T00:58:51.641Z,44.46
2023-07-04T00:59:51.643Z,44.49
2023-07-04T01:00:51.981Z,44.46
2023-07-04T01:01:51.703Z,44.46
2023-07-04T01:02:51.741Z,44.45
2023-07-04T01:03:51.732Z,44.43
2023-07-04T01:04:51.642Z,44.42
2023-07-04T01:05:51.626Z,44.43
2023-07-04T01:06:51.613Z,44.43
2023-07-04T01:07:51.612Z,44.44
2023-07-04T01:08:51.593Z,44.44
2023-07-04T01:09:51.597Z,44.42
2023-07-04T01:10:51.970Z,44.43
2023-07-04T01:11:51.592Z,44.43
2023-07-04T01:12:51.586Z,44.45
2023-07-04T01:13:51.635Z,44.42
2023-07-04T01:14:51.568Z,44.45
2023-07-04T01:15:51.581Z,44.42
2023-07-04T01:16:51.579Z,44.43
2023-07-04T01:17:51.629Z,44.42
2023-07-04T01:18:51.568Z,44.43
2023-07-04T01:19:51.568Z,44.43
2023-07-04T01:20:51.811Z,44.41
2023-07-04T01:21:51.536Z,44.39
2023-07-04T01:22:51.546Z,44.40
2023-07-04T01:23:51.553Z,44.43
2023-07-04T01:24:51.557Z,44.40
2023-07-04T01:25:51.614Z,44.41
2023-07-04T01:26:51.570Z,44.37
2023-07-04T01:27:51.586Z,44.40
2023-07-04T01:28:51.590Z,44.36
2023-07-04T01:29:51.630Z,44.38
2023-07-04T01:30:51.978Z,44.39
2023-07-04T01:31:51.723Z,44.39
2023-07-04T01:32:51.692Z,44.36
2023-07-04T01:33:51.708Z,44.38
2023-07-04T01:34:51.697Z,44.37
2023-07-04T01:35:51.730Z,44.38
2023-07-04T01:36:51.751Z,44.38
2023-07-04T01:37:51.756Z,44.36
2023-07-04T01:38:51.773Z,44.38
2023-07-04T01:39:51.779Z,44.36
2023-07-04T01:40:52.077Z,44.35
2023-07-04T01:41:51.818Z,44.38
2023-07-04T01:42:51.836Z,44.39
2023-07-04T01:43:51.823Z,44.34
2023-07-04T01:44:51.811Z,44.36
2023-07-04T01:45:51.878Z,44.36
2023-07-04T01:46:51.849Z,44.37
2023-07-04T01:47:51.887Z,44.36
2023-07-04T01:48:51.821Z,44.37
2023-07-04T01:49:51.843Z,44.36
2023-07-04T01:50:52.004Z,44.34
2023-07-04T01:51:51.827Z,44.35
2023-07-04T01:52:51.865Z,44.34
2023-07-04T01:53:51.921Z,44.37
2023-07-04T01:54:51.922Z,44.33
2023-07-04T01:55:51.932Z,44.36
2023-07-04T01:56:51.928Z,44.34
2023-07-04T01:57:51.934Z,44.31
2023-07-04T01:58:51.959Z,44.33
2023-07-04T01:59:51.947Z,44.33
2023-07-04T02:00:52.245Z,44.34
2023-07-04T02:01:52.033Z,44.36
2023-07-04T02:02:52.110Z,44.34
2023-07-04T02:03:52.054Z,44.36
2023-07-04T02:04:52.092Z,44.33
2023-07-04T02:05:52.124Z,44.33
2023-07-04T02:06:52.106Z,44.34
2023-07-04T02:07:52.144Z,44.33
2023-07-04T02:08:52.128Z,44.33
2023-07-04T02:09:52.158Z,44.33
2023-07-04T02:10:52.401Z,44.33
2023-07-04T02:11:52.188Z,44.30
2023-07-04T02:12:52.231Z,44.31
2023-07-04T02:13:52.345Z,44.31
2023-07-04T02:14:52.331Z,44.32
2023-07-04T02:15:52.312Z,44.31
2023-07-04T02:16:52.313Z,44.28
2023-07-04T02:17:52.316Z,44.33
2023-07-04T02:18:52.308Z,44.28
2023-07-04T02:19:52.328Z,44.29
2023-07-04T02:20:52.559Z,44.31
2023-07-04T02:21:52.393Z,44.30
2023-07-04T02:22:52.380Z,44.28
2023-07-04T02:23:52.408Z,44.27
2023-07-04T02:24:52.401Z,44.30
2023-07-04T02:25:52.423Z,44.30
2023-07-04T02:26:52.458Z,44.31
2023-07-04T02:27:52.469Z,44.28
2023-07-04T02:28:52.476Z,44.31
2023-07-04T02:29:52.489Z,44.29
2023-07-04T02:30:52.806Z,44.31
2023-07-04T02:31:52.601Z,44.29
2023-07-04T02:32:52.646Z,44.29
2023-07-04T02:33:52.545Z,44.27
2023-07-04T02:34:52.565Z,44.27
2023-07-04T02:35:52.589Z,44.28
2023-07-04T02:36:52.585Z,44.27
2023-07-04T02:37:52.636Z,44.28
2023-07-04T02:38:52.634Z,44.27
2023-07-04T02:39:52.633Z,44.28
2023-07-04T02:40:53.063Z,44.27
2023-07-04T02:41:52.668Z,44.28
2023-07-04T02:42:52.711Z,44.27
2023-07-04T02:43:52.713Z,44.28
2023-07-04T02:44:52.716Z,44.26
2023-07-04T02:45:52.743Z,44.29
2023-07-04T02:46:52.784Z,44.25
2023-07-04T02:47:52.818Z,44.25
2023-07-04T02:48:52.791Z,44.28
2023-07-04T02:49:52.780Z,44.24
2023-07-04T02:50:53.140Z,44.25
2023-07-04T02:51:52.774Z,44.28
2023-07-04T02:52:52.771Z,44.27
2023-07-04T02:53:52.799Z,44.27
2023-07-04T02:54:52.767Z,44.25
2023-07-04T02:55:52.767Z,44.26
2023-07-04T02:56:52.772Z,44.25
2023-07-04T02:57:52.758Z,44.25
2023-07-04T02:58:52.800Z,44.25
2023-07-04T02:59:52.812Z,44.24
2023-07-04T03:00:53.171Z,44.25
2023-07-04T03:01:52.835Z,44.25
2023-07-04T03:02:53.042Z,44.22
2023-07-04T03:03:52.969Z,44.22
2023-07-04T03:04:53.364Z,44.23
2023-07-04T03:05:52.815Z,44.23
2023-07-04T03:06:52.807Z,44.24
2023-07-04T03:07:52.817Z,44.22
2023-07-04T03:08:52.827Z,44.22
2023-07-04T03:09:52.830Z,44.22
2023-07-04T03:10:53.113Z,44.23
2023-07-04T03:11:52.809Z,44.22
2023-07-04T03:12:52.803Z,44.21
2023-07-04T03:13:52.947Z,44.22
2023-07-04T03:14:52.804Z,44.20
2023-07-04T03:15:52.810Z,44.23
2023-07-04T03:16:52.822Z,44.20
2023-07-04T03:17:52.848Z,44.20
2023-07-04T03:18:52.812Z,44.19
2023-07-04T03:19:52.806Z,44.20
2023-07-04T03:20:53.147Z,44.21
2023-07-04T03:21:52.803Z,44.20
2023-07-04T03:22:52.833Z,44.17
2023-07-04T03:23:52.801Z,44.17
2023-07-04T03:24:52.805Z,44.19
2023-07-04T03:25:52.832Z,44.21
2023-07-04T03:26:52.824Z,44.18
2023-07-04T03:27:52.835Z,44.18
2023-07-04T03:28:52.832Z,44.22
2023-07-04T03:29:52.825Z,44.19
2023-07-04T03:30:53.123Z,44.18
2023-07-04T03:31:52.838Z,44.19
2023-07-04T03:32:52.918Z,44.17
2023-07-04T03:33:52.850Z,44.18
2023-07-04T03:34:52.852Z,44.17
2023-07-04T03:35:58.719Z,44.16
2023-07-04T03:36:52.869Z,44.16
2023-07-04T03:37:52.864Z,44.21
2023-07-04T03:38:52.864Z,44.16
2023-07-04T03:39:52.858Z,44.17
2023-07-04T03:40:53.144Z,44.16
2023-07-04T03:41:52.872Z,44.16
2023-07-04T03:42:52.885Z,44.17
2023-07-04T03:43:52.853Z,44.14
2023-07-04T03:44:52.842Z,44.19
2023-07-04T03:45:52.871Z,44.15
2023-07-04T03:46:52.847Z,44.14
2023-07-04T03:47:52.930Z,44.19
2023-07-04T03:48:52.956Z,44.14
2023-07-04T03:49:52.858Z,44.15
2023-07-04T03:50:53.056Z,44.13
2023-07-04T03:51:52.808Z,44.16
2023-07-04T03:52:52.814Z,44.11
2023-07-04T03:53:52.805Z,44.16
2023-07-04T03:54:52.809Z,44.15
2023-07-04T03:55:52.803Z,44.16
2023-07-04T03:56:52.820Z,44.15
2023-07-04T03:57:52.807Z,44.12
2023-07-04T03:58:52.793Z,44.11
2023-07-04T03:59:52.788Z,44.13
2023-07-04T04:00:53.213Z,44.14
2023-07-04T04:01:52.761Z,44.11
2023-07-04T04:02:52.837Z,44.14
2023-07-04T04:03:52.976Z,44.10
2023-07-04T04:04:52.932Z,44.13
2023-07-04T04:05:52.769Z,44.13
2023-07-04T04:06:52.763Z,44.13
2023-07-04T04:07:52.766Z,44.14
2023-07-04T04:08:52.761Z,44.10
2023-07-04T04:09:52.755Z,44.13
2023-07-04T04:10:52.911Z,44.13
2023-07-04T04:11:52.730Z,44.14
2023-07-04T04:12:52.738Z,44.15
2023-07-04T04:13:52.853Z,44.12
2023-07-04T04:14:52.713Z,44.12
2023-07-04T04:15:52.715Z,44.13
2023-07-04T04:16:52.848Z,44.12
2023-07-04T04:17:52.745Z,44.12
2023-07-04T04:18:52.724Z,44.15
2023-07-04T04:19:52.718Z,44.08
2023-07-04T04:20:53.080Z,44.08
2023-07-04T04:21:52.706Z,44.11
2023-07-04T04:22:52.705Z,44.11
2023-07-04T04:23:52.722Z,44.10
2023-07-04T04:24:52.707Z,44.06
2023-07-04T04:25:52.713Z,44.10
2023-07-04T04:26:52.719Z,44.10
2023-07-04T04:27:52.689Z,44.05
2023-07-04T04:28:52.682Z,44.05
2023-07-04T04:29:52.693Z,44.04
2023-07-04T04:30:52.874Z,44.03
2023-07-04T04:31:52.662Z,44.05
2023-07-04T04:32:52.768Z,44.04
2023-07-04T04:33:52.740Z,44.02
2023-07-04T04:34:52.675Z,44.04
2023-07-04T04:35:52.682Z,44.06
2023-07-04T04:36:52.686Z,44.02
2023-07-04T04:37:52.736Z,44.00
2023-07-04T04:38:52.676Z,44.02
2023-07-04T04:39:52.665Z,44.03
2023-07-04T04:40:53.034Z,43.99
2023-07-04T04:41:52.672Z,44.01
2023-07-04T04:42:52.662Z,43.99
2023-07-04T04:43:52.692Z,44.01
2023-07-04T04:44:52.654Z,44.00
2023-07-04T04:45:52.840Z,43.99
2023-07-04T04:46:52.742Z,43.99
2023-07-04T04:47:52.675Z,44.00
2023-07-04T04:48:52.659Z,43.98
2023-07-04T04:49:52.669Z,43.98
2023-07-04T04:50:52.845Z,43.98
2023-07-04T04:51:52.633Z,43.97
2023-07-04T04:52:52.633Z,43.99
2023-07-04T04:53:52.634Z,43.97
2023-07-04T04:54:52.657Z,43.96
2023-07-04T04:55:52.629Z,43.98
2023-07-04T04:56:52.628Z,43.98
2023-07-04T04:57:52.629Z,43.98
2023-07-04T04:58:53.451Z,43.98
2023-07-04T04:59:52.664Z,43.99
2023-07-04T05:00:52.795Z,43.95
2023-07-04T05:01:52.696Z,43.99
2023-07-04T05:02:52.843Z,43.98
2023-07-04T05:03:52.700Z,43.97
2023-07-04T05:04:52.624Z,43.97
2023-07-04T05:05:52.630Z,43.98
2023-07-04T05:06:52.630Z,43.97
2023-07-04T05:07:52.650Z,43.96
2023-07-04T05:08:52.704Z,43.97
2023-07-04T05:09:52.639Z,43.96
2023-07-04T05:10:52.804Z,43.97
2023-07-04T05:11:52.621Z,43.97
2023-07-04T05:12:52.626Z,43.97
2023-07-04T05:13:52.701Z,43.96
2023-07-04T05:14:52.615Z,43.98
2023-07-04T05:15:52.931Z,43.95
2023-07-04T05:16:52.606Z,43.96
2023-07-04T05:17:52.709Z,43.96
2023-07-04T05:18:52.628Z,43.96
2023-07-04T05:19:52.642Z,43.99
2023-07-04T05:20:52.862Z,43.96
2023-07-04T05:21:52.699Z,43.93
2023-07-04T05:22:52.702Z,43.95
2023-07-04T05:23:52.712Z,43.94
2023-07-04T05:24:52.831Z,43.96
2023-07-04T05:25:52.732Z,43.95
2023-07-04T05:26:52.765Z,43.97
2023-07-04T05:27:52.730Z,43.95
2023-07-04T05:28:52.738Z,43.94
2023-07-04T05:29:52.762Z,43.95
2023-07-04T05:30:52.982Z,43.95
2023-07-04T05:31:52.902Z,43.90
2023-07-04T05:32:52.896Z,43.92
2023-07-04T05:33:52.902Z,43.90
2023-07-04T05:34:52.888Z,43.91
2023-07-04T05:35:52.906Z,43.92
2023-07-04T05:36:53.027Z,43.94
2023-07-04T05:37:52.962Z,43.91
2023-07-04T05:38:52.976Z,43.93
2023-07-04T05:39:52.977Z,43.91
2023-07-04T05:40:53.225Z,43.91
2023-07-04T05:41:53.025Z,43.93
2023-07-04T05:42:53.503Z,43.94
2023-07-04T05:43:53.468Z,43.91
2023-07-04T05:44:53.115Z,43.93
2023-07-04T05:45:53.122Z,43.94
2023-07-04T05:46:53.185Z,43.93
2023-07-04T05:47:53.288Z,43.94
2023-07-04T05:48:53.249Z,43.92
2023-07-04T05:49:53.290Z,43.94
2023-07-04T05:50:53.460Z,43.96
2023-07-04T05:51:53.439Z,43.99
2023-07-04T05:52:53.315Z,44.03
2023-07-04T05:53:53.369Z,44.01
2023-07-04T05:54:53.363Z,43.98
2023-07-04T05:55:53.446Z,44.07
2023-07-04T05:56:53.997Z,43.95
2023-07-04T05:57:53.559Z,44.02
2023-07-04T05:58:53.599Z,44.11
2023-07-04T05:59:53.661Z,44.29
2023-07-04T06:00:54.074Z,44.47
2023-07-04T06:01:53.951Z,44.64
2023-07-04T06:02:53.827Z,44.69
2023-07-04T06:03:53.844Z,44.81
2023-07-04T06:04:53.960Z,44.42
2023-07-04T06:05:53.937Z,44.34
2023-07-04T06:06:53.970Z,44.64
2023-07-04T06:07:53.932Z,44.86
2023-07-04T06:08:53.995Z,45.17
2023-07-04T06:09:54.456Z,45.59
2023-07-04T06:10:54.360Z,45.87
2023-07-04T06:11:54.157Z,46.01
2023-07-04T06:12:54.168Z,46.25
2023-07-04T06:13:54.513Z,46.50
2023-07-04T06:14:54.477Z,46.64
2023-07-04T06:15:54.360Z,46.66
2023-07-04T06:16:54.340Z,46.85
2023-07-04T06:17:55.506Z,46.94
2023-07-04T06:18:54.531Z,47.06
2023-07-04T06:19:54.570Z,47.16
2023-07-04T06:20:54.705Z,47.10
2023-07-04T06:21:54.652Z,47.11
2023-07-04T06:22:54.683Z,47.05
2023-07-04T06:23:55.002Z,47.16
2023-07-04T06:24:54.846Z,47.11
2023-07-04T06:25:54.932Z,47.03
2023-07-04T06:26:55.010Z,47.07
2023-07-04T06:27:55.091Z,47.09
2023-07-04T06:28:55.494Z,46.85
2023-07-04T06:29:55.249Z,46.93
2023-07-04T06:30:55.377Z,46.75
2023-07-04T06:31:55.402Z,46.79
2023-07-04T06:32:55.534Z,46.90
2023-07-04T06:33:56.047Z,47.06
2023-07-04T06:34:55.975Z,47.02
2023-07-04T06:35:55.680Z,47.06
2023-07-04T06:36:55.744Z,47.11
2023-07-04T06:37:55.884Z,47.19
2023-07-04T06:38:55.889Z,47.21
2023-07-04T06:39:55.985Z,47.12
2023-07-04T06:40:56.020Z,47.29
2023-07-04T06:41:56.102Z,47.20
2023-07-04T06:42:56.158Z,47.23
2023-07-04T06:43:56.279Z,47.33
2023-07-04T06:44:56.296Z,47.31
2023-07-04T06:45:56.400Z,47.24
2023-07-04T06:46:56.455Z,47.23
2023-07-04T06:47:56.585Z,47.07
2023-07-04T06:48:56.503Z,47.12
2023-07-04T06:49:56.973Z,47.62
2023-07-04T06:50:56.605Z,47.59
2023-07-04T06:51:57.569Z,47.89
2023-07-04T06:52:56.648Z,47.85
2023-07-04T06:53:57.002Z,47.85
2023-07-04T06:54:56.722Z,47.78
2023-07-04T06:55:56.758Z,47.55
2023-07-04T06:56:56.861Z,47.66
2023-07-04T06:57:56.835Z,47.66
2023-07-04T06:58:56.863Z,47.59
2023-07-04T06:59:56.895Z,47.65
2023-07-04T07:00:57.329Z,47.71
2023-07-04T07:01:57.099Z,47.69
2023-07-04T07:02:57.299Z,47.88
2023-07-04T07:03:57.754Z,47.64
2023-07-04T07:04:57.528Z,47.52
2023-07-04T07:05:57.068Z,47.59
2023-07-04T07:06:57.094Z,47.65
2023-07-04T07:07:57.120Z,47.64
2023-07-04T07:08:57.175Z,47.32
2023-07-04T07:09:57.510Z,47.20
2023-07-04T07:10:57.190Z,47.28
2023-07-04T07:11:57.478Z,47.17
2023-07-04T07:12:57.227Z,47.04
2023-07-04T07:13:57.383Z,47.15
2023-07-04T07:14:57.299Z,47.09
2023-07-04T07:16:56.512Z,47.02
2023-07-04T07:17:57.440Z,46.77
2023-07-04T07:18:59.065Z,46.78
2023-07-04T07:19:58.124Z,46.75
2023-07-04T07:20:57.419Z,46.44
2023-07-04T07:21:57.432Z,46.36
2023-07-04T07:22:57.479Z,46.53
2023-07-04T07:23:58.693Z,46.07
2023-07-04T07:24:58.006Z,45.94
2023-07-04T07:25:57.866Z,45.90
2023-07-04T07:26:58.505Z,46.13
2023-07-04T07:27:58.666Z,46.34
2023-07-04T07:28:57.694Z,46.52
2023-07-04T07:29:58.497Z,46.53
2023-07-04T07:30:57.678Z,46.22
2023-07-04T07:31:58.170Z,46.17
2023-07-04T07:32:57.741Z,46.19
2023-07-04T07:33:58.016Z,46.24
2023-07-04T07:34:57.761Z,46.50
2023-07-04T07:35:57.779Z,46.80
2023-07-04T07:36:57.819Z,46.85
2023-07-04T07:37:57.845Z,47.03
2023-07-04T07:38:58.067Z,46.96
2023-07-04T07:39:57.883Z,46.95
2023-07-04T07:40:57.916Z,47.18
2023-07-04T07:41:57.946Z,47.26
2023-07-04T07:42:57.950Z,47.08
2023-07-04T07:43:57.986Z,47.19
2023-07-04T07:44:58.501Z,47.44
2023-07-04T07:45:58.100Z,47.30
2023-07-04T07:46:58.645Z,47.18
2023-07-04T07:47:58.572Z,47.08
2023-07-04T07:48:59.309Z,47.12
2023-07-04T07:49:58.183Z,46.87
2023-07-04T07:50:58.292Z,46.86
2023-07-04T07:51:58.499Z,47.03
2023-07-04T07:52:58.445Z,46.96
2023-07-04T07:53:58.513Z,46.75
2023-07-04T07:54:58.627Z,46.63
2023-07-04T07:55:58.718Z,46.70
2023-07-04T07:56:58.994Z,46.58
2023-07-04T07:58:01.024Z,46.37
2023-07-04T07:58:58.809Z,46.31
2023-07-04T07:59:58.780Z,46.28
2023-07-04T08:00:58.792Z,46.11
2023-07-04T08:01:58.794Z,45.99
2023-07-04T08:02:58.880Z,45.93
2023-07-04T08:03:58.969Z,46.02
2023-07-04T08:04:58.926Z,45.82
2023-07-04T08:05:58.835Z,45.86
2023-07-04T08:06:58.848Z,45.67
2023-07-04T08:07:58.870Z,45.80
2023-07-04T08:08:59.011Z,45.83
2023-07-04T08:09:59.006Z,45.91
2023-07-04T08:10:58.881Z,46.01
2023-07-04T08:11:59.063Z,45.67
2023-07-04T08:12:58.879Z,45.57
2023-07-04T08:13:59.073Z,45.68
2023-07-04T08:14:58.894Z,45.68
2023-07-04T08:15:58.981Z,45.87
2023-07-04T08:16:59.549Z,45.81
2023-07-04T08:17:59.119Z,45.85
2023-07-04T08:18:59.151Z,45.96
2023-07-04T08:19:59.227Z,46.25
2023-07-04T08:20:59.296Z,46.03
2023-07-04T08:21:59.368Z,45.96
2023-07-04T08:22:59.441Z,45.94
2023-07-04T08:23:59.597Z,45.85
2023-07-04T08:24:59.551Z,45.91
2023-07-04T08:25:59.595Z,45.90
2023-07-04T08:26:59.729Z,45.92
2023-07-04T08:27:59.711Z,45.94
2023-07-04T08:29:00.064Z,45.82
2023-07-04T08:29:59.847Z,45.62
2023-07-04T08:30:59.886Z,45.85
2023-07-04T08:31:59.957Z,46.17
2023-07-04T08:33:00.029Z,46.15
2023-07-04T08:34:00.071Z,45.77
2023-07-04T08:35:00.513Z,45.79
2023-07-04T08:36:00.134Z,45.68
2023-07-04T08:37:00.185Z,45.60
2023-07-04T08:38:00.232Z,45.41
2023-07-04T08:39:00.290Z,45.52
2023-07-04T08:40:00.333Z,45.42
2023-07-04T08:41:00.515Z,45.36
2023-07-04T08:42:00.517Z,45.28
2023-07-04T08:43:00.485Z,45.37
2023-07-04T08:44:00.538Z,45.64
2023-07-04T08:45:00.601Z,45.50
2023-07-04T08:46:01.085Z,45.50
2023-07-04T08:47:00.718Z,45.38
2023-07-04T08:48:00.837Z,45.73
2023-07-04T08:49:00.818Z,45.77
2023-07-04T08:50:00.926Z,45.76
2023-07-04T08:51:01.028Z,45.70
2023-07-04T08:52:00.956Z,45.99
2023-07-04T08:53:01.002Z,46.64
2023-07-04T08:54:01.033Z,46.79
2023-07-04T08:55:01.082Z,46.62
2023-07-04T08:56:01.101Z,46.65
2023-07-04T08:57:01.141Z,46.47
2023-07-04T08:58:01.162Z,46.49
2023-07-04T08:59:01.542Z,46.25
2023-07-04T09:00:01.244Z,46.38
2023-07-04T09:01:01.274Z,46.13
2023-07-04T09:02:01.350Z,46.10
2023-07-04T09:03:01.509Z,45.99
2023-07-04T09:04:01.557Z,46.01
2023-07-04T09:05:01.436Z,46.20
2023-07-04T09:06:01.525Z,46.16
2023-07-04T09:07:01.523Z,45.94
2023-07-04T09:08:01.594Z,45.69
2023-07-04T09:09:01.630Z,45.88
2023-07-04T09:10:01.681Z,46.10
2023-07-04T09:11:01.718Z,45.95
2023-07-04T09:12:01.775Z,45.98
2023-07-04T09:13:01.891Z,46.09
2023-07-04T09:14:02.147Z,46.50
2023-07-04T09:15:01.916Z,46.53
2023-07-04T09:16:02.085Z,46.13
2023-07-04T09:17:01.996Z,46.16
2023-07-04T09:18:16.580Z,46.35
2023-07-04T09:19:02.055Z,46.31
2023-07-04T09:20:02.043Z,46.39
2023-07-04T09:21:02.537Z,46.26
2023-07-04T09:22:02.024Z,46.23
2023-07-04T09:23:02.032Z,46.10
2023-07-04T09:24:02.034Z,46.40
2023-07-04T09:25:02.032Z,46.08
2023-07-04T09:26:02.036Z,45.99
2023-07-04T09:27:02.029Z,45.97
2023-07-04T09:28:02.008Z,45.89
2023-07-04T09:29:02.012Z,45.89
2023-07-04T09:30:02.024Z,46.20
2023-07-04T09:31:02.035Z,46.05
2023-07-04T09:32:02.433Z,46.06
2023-07-04T09:33:01.999Z,45.93
2023-07-04T09:34:02.039Z,45.90
2023-07-04T09:35:02.044Z,45.94
2023-07-04T09:36:02.000Z,46.00
2023-07-04T09:37:02.000Z,45.96
2023-07-04T09:38:02.031Z,45.87
2023-07-04T09:39:01.986Z,45.81
2023-07-04T09:40:02.053Z,45.74
2023-07-04T09:41:02.051Z,45.76
2023-07-04T09:43:00.969Z,45.84
2023-07-04T09:44:01.987Z,45.73
2023-07-04T09:45:02.065Z,45.25
2023-07-04T09:46:02.040Z,45.59
2023-07-04T09:47:01.974Z,45.70
2023-07-04T09:48:02.001Z,45.71
2023-07-04T09:49:01.950Z,45.72
2023-07-04T09:50:01.987Z,45.86
2023-07-04T09:51:01.957Z,46.03
2023-07-04T09:52:01.957Z,46.02
2023-07-04T09:53:01.986Z,45.95
2023-07-04T09:54:01.952Z,45.67
2023-07-04T09:55:01.953Z,45.61
2023-07-04T09:56:01.944Z,45.44
2023-07-04T09:57:01.935Z,45.46
2023-07-04T09:58:01.928Z,45.30
2023-07-04T09:59:01.938Z,45.32
2023-07-04T10:00:01.976Z,45.47
2023-07-04T10:01:02.009Z,45.46
2023-07-04T10:02:01.979Z,45.43
2023-07-04T10:03:02.009Z,45.37
2023-07-04T10:04:01.936Z,45.29
2023-07-04T10:05:01.964Z,45.34
2023-07-04T10:06:02.075Z,45.33
2023-07-04T10:07:01.927Z,45.28
2023-07-04T10:08:01.925Z,45.17
2023-07-04T10:09:01.931Z,44.99
2023-07-04T10:10:02.056Z,44.92
2023-07-04T10:11:01.909Z,45.01
2023-07-04T10:12:01.901Z,45.02
2023-07-04T10:13:01.901Z,44.91
2023-07-04T10:14:02.024Z,44.65
2023-07-04T10:15:01.900Z,44.53
2023-07-04T10:16:01.877Z,44.47
2023-07-04T10:17:01.910Z,44.57
2023-07-04T10:18:01.914Z,44.58
2023-07-04T10:19:01.873Z,44.47
2023-07-04T10:20:01.900Z,44.35
2023-07-04T10:21:01.876Z,44.15
2023-07-04T10:22:01.892Z,44.18
2023-07-04T10:23:01.906Z,44.24
2023-07-04T10:24:01.869Z,44.27
2023-07-04T10:25:01.860Z,44.32
2023-07-04T10:26:01.899Z,43.90
2023-07-04T10:27:01.854Z,44.01
2023-07-04T10:28:01.860Z,44.02
2023-07-04T10:29:01.853Z,44.15
2023-07-04T10:30:01.855Z,44.22
2023-07-04T10:31:02.290Z,44.28
2023-07-04T10:32:01.847Z,44.07
2023-07-04T10:33:01.888Z,43.85
2023-07-04T10:34:01.842Z,43.96
2023-07-04T10:35:01.838Z,44.03
2023-07-04T10:36:01.837Z,43.98
2023-07-04T10:37:01.846Z,43.92
2023-07-04T10:38:01.856Z,43.95
2023-07-04T10:39:01.839Z,44.00
2023-07-04T10:40:01.817Z,44.01
2023-07-04T10:41:01.818Z,44.08
2023-07-04T10:42:01.815Z,44.07
2023-07-04T10:43:01.825Z,44.09
2023-07-04T10:44:01.866Z,43.94
2023-07-04T10:45:01.883Z,43.88
2023-07-04T10:46:02.213Z,43.87
2023-07-04T10:47:02.053Z,44.01
2023-07-04T10:48:01.969Z,44.10
2023-07-04T10:49:01.929Z,43.92
2023-07-04T10:50:01.929Z,43.81
2023-07-04T10:51:01.917Z,43.97
2023-07-04T10:52:01.923Z,43.79
2023-07-04T10:53:01.935Z,43.84
2023-07-04T10:54:02.052Z,43.77
2023-07-04T10:55:01.968Z,43.78
2023-07-04T10:56:01.984Z,43.71
2023-07-04T10:57:01.974Z,43.65
2023-07-04T10:58:01.998Z,43.65
2023-07-04T10:59:02.012Z,43.64
2023-07-04T11:00:04.450Z,43.72
2023-07-04T11:01:02.104Z,43.61
2023-07-04T11:02:02.057Z,43.61
2023-07-04T11:03:02.097Z,43.54
2023-07-04T11:04:02.068Z,43.58
2023-07-04T11:05:01.996Z,43.51
2023-07-04T11:06:04.495Z,43.56
2023-07-04T11:07:01.975Z,43.56
2023-07-04T11:08:01.976Z,43.59
2023-07-04T11:09:01.970Z,43.55
2023-07-04T11:10:01.980Z,43.44
2023-07-04T11:11:01.956Z,43.28
2023-07-04T11:12:01.983Z,43.29
2023-07-04T11:13:01.966Z,43.30
2023-07-04T11:14:01.952Z,43.29
2023-07-04T11:15:01.941Z,43.36
2023-07-04T11:16:01.940Z,43.34
2023-07-04T11:17:03.460Z,43.28
2023-07-04T11:18:02.264Z,43.23
2023-07-04T11:19:02.576Z,43.29
2023-07-04T11:20:02.343Z,43.27
2023-07-04T11:21:02.345Z,43.25
2023-07-04T11:22:02.401Z,43.14
2023-07-04T11:23:05.608Z,43.22
2023-07-04T11:24:02.454Z,43.20
2023-07-04T11:25:02.453Z,43.14
2023-07-04T11:26:02.478Z,43.15
2023-07-04T11:27:02.456Z,43.10
2023-07-04T11:28:02.452Z,43.14
2023-07-04T11:29:02.460Z,43.14
2023-07-04T11:30:02.532Z,43.20
2023-07-04T11:31:02.489Z,43.24
2023-07-04T11:32:02.456Z,43.16
2023-07-04T11:33:02.473Z,43.25
2023-07-04T11:34:02.480Z,43.25
2023-07-04T11:35:02.457Z,43.20
2023-07-04T11:36:02.444Z,43.28
2023-07-04T11:37:02.444Z,43.15
2023-07-04T11:38:02.442Z,43.16
2023-07-04T11:39:02.420Z,43.08
2023-07-04T11:40:02.430Z,43.06
2023-07-04T11:41:02.409Z,43.00
2023-07-04T11:42:02.482Z,42.96
2023-07-04T11:43:02.504Z,43.00
2023-07-04T11:44:02.566Z,42.95
2023-07-04T11:45:02.608Z,42.99
2023-07-04T11:46:02.691Z,42.97
2023-07-04T11:47:02.709Z,43.04
2023-07-04T11:48:02.804Z,43.05
2023-07-04T11:49:02.787Z,43.09
2023-07-04T11:50:02.840Z,43.15
2023-07-04T11:51:02.880Z,43.26
2023-07-04T11:52:02.956Z,43.15
2023-07-04T11:53:02.969Z,43.10
2023-07-04T11:54:03.008Z,43.07
2023-07-04T11:55:03.037Z,43.03
2023-07-04T11:56:03.081Z,42.97
2023-07-04T11:57:03.745Z,43.03
2023-07-04T11:58:03.171Z,42.96
2023-07-04T11:59:03.187Z,43.13
2023-07-04T12:00:03.234Z,42.98
2023-07-04T12:01:03.239Z,42.99
2023-07-04T12:02:03.281Z,43.02
2023-07-04T12:03:03.405Z,42.91
2023-07-04T12:04:03.465Z,42.77
2023-07-04T12:05:03.425Z,42.69
2023-07-04T12:06:03.405Z,42.70
2023-07-04T12:07:03.443Z,42.65
2023-07-04T12:08:03.461Z,42.72
2023-07-04T12:09:03.485Z,42.67
2023-07-04T12:10:03.530Z,42.53
2023-07-04T12:11:03.549Z,42.52
2023-07-04T12:12:03.588Z,42.55
2023-07-04T12:13:03.630Z,42.51
2023-07-04T12:14:03.672Z,42.56
2023-07-04T12:15:03.682Z,42.54
2023-07-04T12:16:03.736Z,42.52
2023-07-04T12:17:03.732Z,42.51
2023-07-04T12:18:03.851Z,42.40
2023-07-04T12:19:03.814Z,42.52
2023-07-04T12:20:03.830Z,42.53
2023-07-04T12:21:03.870Z,42.51
2023-07-04T12:22:03.905Z,42.52
2023-07-04T12:23:03.940Z,42.54
2023-07-04T12:24:03.969Z,42.57
2023-07-04T12:25:04.005Z,42.61
2023-07-04T12:26:04.035Z,42.66
2023-07-04T12:27:04.074Z,42.68
2023-07-04T12:28:04.118Z,42.75
2023-07-04T12:29:04.189Z,42.80
2023-07-04T12:30:04.599Z,42.77
2023-07-04T12:32:03.218Z,42.86
2023-07-04T12:33:07.247Z,42.90
2023-07-04T12:36:03.216Z,43.00
2023-07-04T12:37:04.240Z,43.05
2023-07-04T12:38:04.270Z,43.09
2023-07-04T12:39:04.232Z,43.11
2023-07-04T12:40:04.244Z,43.14
2023-07-04T12:41:04.237Z,43.19
2023-07-04T12:42:04.239Z,43.21
2023-07-04T12:45:03.226Z,43.31
2023-07-04T12:50:04.309Z,43.45
2023-07-04T12:51:04.300Z,43.45
2023-07-04T12:52:04.207Z,43.50
2023-07-04T12:53:04.203Z,43.50
2023-07-04T12:54:04.219Z,43.53
2023-07-04T12:55:04.211Z,43.53
2023-07-04T12:56:04.194Z,43.52
2023-07-04T12:57:04.185Z,43.57
2023-07-04T12:58:04.173Z,43.57
2023-07-04T12:59:04.180Z,43.63
2023-07-04T13:00:04.178Z,43.64
2023-07-04T13:01:04.381Z,43.63
2023-07-04T13:02:05.508Z,43.63
2023-07-04T13:03:04.374Z,43.64
2023-07-04T13:04:04.437Z,43.64